createdAt,value
2023-01-23T00:02:48.734Z,20.50
2023-01-23T00:07:49.403Z,20.50
2023-01-23T00:12:50.175Z,21.00
2023-01-23T00:17:50.874Z,21.50
2023-01-23T00:22:51.761Z,20.40
2023-01-23T00:27:52.596Z,21.20
2023-01-23T00:32:53.345Z,21.50
2023-01-23T00:37:54.227Z,21.20
2023-01-23T00:42:55.027Z,21.20
2023-01-23T00:47:55.728Z,20.90
2023-01-23T00:52:56.570Z,21.80
2023-01-23T00:57:57.351Z,20.90
2023-01-23T01:02:58.084Z,22.30
2023-01-23T01:07:58.815Z,22.20
2023-01-23T01:13:00.777Z,22.50
2023-01-23T01:18:00.528Z,22.80
2023-01-23T01:23:01.225Z,22.80
2023-01-23T01:28:02.073Z,22.10
2023-01-23T01:33:02.910Z,21.60
2023-01-23T01:38:03.624Z,22.30
2023-01-23T01:43:04.338Z,22.30
2023-01-23T01:48:05.114Z,22.70
2023-01-23T01:53:07.896Z,22.80
2023-01-23T01:58:13.574Z,23.20
2023-01-23T02:03:07.277Z,22.90
2023-01-23T02:08:08.044Z,22.20
2023-01-23T02:13:08.873Z,22.70
2023-01-23T02:18:09.525Z,22.90
2023-01-23T02:23:10.241Z,22.90
2023-01-23T02:28:10.956Z,23.90
2023-01-23T02:33:11.810Z,23.00
2023-01-23T02:38:12.469Z,22.80
2023-01-23T02:43:13.267Z,22.40
2023-01-23T02:48:14.007Z,22.60
2023-01-23T02:53:14.867Z,22.50
2023-01-23T02:58:15.638Z,22.30
2023-01-23T03:03:16.366Z,23.20
2023-01-23T03:08:17.091Z,22.70
2023-01-23T03:13:17.934Z,22.50
2023-01-23T03:18:18.606Z,22.70
2023-01-23T03:23:19.338Z,23.90
2023-01-23T03:28:20.170Z,22.50
2023-01-23T03:33:21.012Z,22.80
2023-01-23T03:38:21.668Z,23.00
2023-01-23T03:43:22.397Z,23.10
2023-01-23T03:48:23.270Z,23.10
2023-01-23T03:53:24.029Z,23.00
2023-01-23T03:58:24.770Z,22.90
2023-01-23T04:03:25.510Z,23.20
2023-01-23T04:08:26.403Z,23.70
2023-01-23T04:13:27.075Z,24.30
2023-01-23T04:18:27.825Z,24.30
2023-01-23T04:23:28.548Z,23.90
2023-01-23T04:28:29.414Z,24.40
2023-01-23T04:33:30.080Z,24.50
2023-01-23T04:38:30.803Z,24.90
2023-01-23T04:43:31.661Z,25.40
2023-01-23T04:48:32.326Z,24.80
2023-01-23T04:53:33.061Z,24.80
2023-01-23T04:58:33.934Z,24.50
2023-01-23T05:03:34.600Z,25.30
2023-01-23T05:08:35.439Z,26.40
2023-01-23T05:13:36.198Z,26.30
2023-01-23T05:18:37.043Z,25.90
2023-01-23T05:23:37.722Z,25.50
2023-01-23T05:28:38.455Z,26.10
2023-01-23T05:33:39.328Z,26.60
2023-01-23T05:38:40.006Z,26.40
2023-01-23T05:43:40.807Z,27.40
2023-01-23T05:48:41.567Z,26.80
2023-01-23T05:53:42.433Z,27.00
2023-01-23T05:58:43.114Z,28.10
2023-01-23T06:03:43.998Z,27.60
2023-01-23T06:08:44.806Z,27.50
2023-01-23T06:13:45.563Z,26.10
2023-01-23T06:18:46.215Z,26.40
2023-01-23T06:23:47.088Z,25.80
2023-01-23T06:28:47.761Z,26.00
2023-01-23T06:33:48.489Z,25.90
2023-01-23T06:38:49.181Z,26.90
2023-01-23T06:43:49.989Z,25.20
2023-01-23T06:48:50.606Z,24.90
2023-01-23T06:53:51.279Z,25.40
2023-01-23T06:58:51.979Z,26.40
2023-01-23T07:03:52.766Z,27.50
2023-01-23T07:08:53.396Z,26.90
2023-01-23T07:13:54.068Z,26.00
2023-01-23T07:18:54.859Z,27.10
2023-01-23T07:23:55.480Z,27.40
2023-01-23T07:28:56.154Z,27.50
2023-01-23T07:33:56.857Z,27.90
2023-01-23T07:38:57.514Z,28.10
2023-01-23T07:43:58.205Z,28.70
2023-01-23T07:48:58.890Z,30.70
2023-01-23T07:53:59.713Z,27.70
2023-01-23T07:59:07.359Z,29.80
2023-01-23T08:04:01.137Z,28.10
2023-01-23T08:09:01.848Z,27.20
2023-01-23T08:14:02.649Z,29.20
2023-01-23T08:19:03.278Z,28.80
2023-01-23T08:24:03.964Z,29.70
2023-01-23T08:29:04.657Z,28.50
2023-01-23T08:34:05.492Z,27.90
2023-01-23T08:39:06.266Z,28.00
2023-01-23T08:44:06.897Z,28.10
2023-01-23T08:49:08.544Z,28.30
2023-01-23T08:54:08.205Z,27.70
2023-01-23T08:59:08.836Z,29.00
2023-01-23T09:04:09.520Z,26.40
2023-01-23T09:09:10.220Z,26.30
2023-01-23T09:14:11.029Z,27.00
2023-01-23T09:19:11.705Z,27.40
2023-01-23T09:24:12.420Z,25.90
2023-01-23T09:29:13.078Z,26.80
2023-01-23T09:34:16.870Z,26.20
2023-01-23T09:39:14.250Z,25.70
2023-01-23T09:44:14.906Z,26.00
2023-01-23T09:49:15.604Z,26.00
2023-01-23T09:54:16.419Z,26.40
2023-01-23T09:59:17.062Z,27.80
2023-01-23T10:04:17.761Z,25.90
2023-01-23T10:09:18.413Z,25.20
2023-01-23T10:14:19.222Z,26.50
2023-01-23T10:19:19.851Z,25.70
2023-01-23T10:24:22.897Z,26.10
2023-01-23T10:29:21.240Z,25.80
2023-01-23T10:34:22.044Z,25.30
2023-01-23T10:39:22.725Z,24.50
2023-01-23T10:44:23.402Z,25.40
2023-01-23T10:49:24.079Z,25.00
2023-01-23T10:54:33.393Z,25.30
2023-01-23T10:59:26.359Z,25.10
2023-01-23T11:04:26.006Z,27.00
2023-01-23T11:09:26.684Z,28.10
2023-01-23T11:14:27.507Z,25.20
2023-01-23T11:19:28.122Z,26.50
2023-01-23T11:24:39.313Z,25.50
2023-01-23T11:29:30.500Z,25.00
2023-01-23T11:34:30.112Z,26.10
2023-01-23T11:39:30.803Z,26.30
2023-01-23T11:44:38.141Z,28.20
2023-01-23T11:49:33.226Z,25.20
2023-01-23T11:54:32.870Z,24.60
2023-01-23T11:59:33.691Z,24.10
2023-01-23T12:04:34.364Z,22.30
2023-01-23T12:09:35.209Z,23.10
2023-01-23T12:14:35.883Z,21.30
2023-01-23T12:19:36.544Z,20.60
2023-01-23T12:24:37.211Z,20.50
2023-01-23T12:29:38.144Z,19.40
2023-01-23T12:34:38.823Z,19.20
2023-01-23T12:39:39.612Z,20.40
2023-01-23T12:44:40.453Z,18.20
2023-01-23T12:49:41.188Z,19.00
2023-01-23T12:54:41.781Z,18.50
2023-01-23T12:59:42.454Z,17.90
2023-01-23T13:04:43.119Z,17.70
2023-01-23T13:09:43.918Z,17.50
2023-01-23T13:15:10.220Z,17.50
2023-01-23T13:19:46.085Z,18.20
2023-01-23T13:24:45.888Z,18.20
2023-01-23T13:29:46.492Z,16.40
2023-01-23T13:34:47.188Z,16.70
2023-01-23T13:39:49.235Z,16.40
2023-01-23T13:44:48.588Z,17.40
2023-01-23T13:49:49.252Z,16.80
2023-01-23T13:54:50.087Z,16.40
2023-01-23T13:59:57.850Z,16.40
2023-01-23T14:04:51.520Z,18.90
2023-01-23T14:09:52.308Z,15.30
2023-01-23T14:14:52.931Z,16.20
2023-01-23T14:19:53.603Z,16.10
2023-01-23T14:24:54.439Z,16.00
2023-01-23T14:29:55.075Z,15.70
2023-01-23T14:34:55.752Z,14.50
2023-01-23T14:39:57.914Z,15.20
2023-01-23T14:44:57.142Z,16.40
2023-01-23T14:49:57.843Z,16.30
2023-01-23T14:55:03.153Z,16.00
2023-01-23T15:00:00.000Z,15.90
2023-01-23T15:04:59.689Z,16.60
2023-01-23T15:10:00.419Z,25.20
2023-01-23T15:15:01.050Z,19.80
2023-01-23T15:20:01.745Z,23.50
2023-01-23T15:25:02.710Z,20.20
2023-01-23T15:30:03.305Z,17.10
2023-01-23T15:35:03.998Z,24.50
2023-01-23T15:40:04.769Z,17.20
2023-01-23T15:45:05.449Z,17.90
2023-01-23T15:50:06.072Z,17.40
2023-01-23T15:55:06.875Z,17.00
2023-01-23T16:00:07.483Z,18.40
2023-01-23T16:05:08.161Z,16.50
2023-01-23T16:10:09.011Z,16.10
2023-01-23T16:15:09.701Z,17.20
2023-01-23T16:20:10.397Z,17.00
2023-01-23T16:25:11.221Z,17.60
2023-01-23T16:30:11.921Z,16.30
2023-01-23T16:35:12.696Z,16.10
2023-01-23T16:40:13.444Z,16.10
2023-01-23T16:45:14.142Z,16.80
2023-01-23T16:50:14.878Z,16.00
2023-01-23T16:55:15.685Z,16.10
2023-01-23T17:00:18.999Z,15.40
2023-01-23T17:05:17.335Z,16.30
2023-01-23T17:10:18.178Z,15.90
2023-01-23T17:15:18.865Z,17.20
2023-01-23T17:20:19.621Z,16.70
2023-01-23T17:25:20.842Z,16.90
2023-01-23T17:30:21.193Z,17.00
2023-01-23T17:35:22.398Z,16.80
2023-01-23T17:40:22.740Z,16.10
2023-01-23T17:45:24.132Z,16.50
2023-01-23T17:50:24.268Z,16.50
2023-01-23T17:55:25.083Z,16.70
2023-01-23T18:00:25.966Z,16.40
2023-01-23T18:05:26.788Z,16.90
2023-01-23T18:10:27.453Z,16.90
2023-01-23T18:15:28.205Z,16.40
2023-01-23T18:20:29.084Z,16.20
2023-01-23T18:25:29.392Z,17.10
2023-01-23T18:30:30.189Z,16.60
2023-01-23T18:35:30.934Z,17.20
2023-01-23T18:40:31.899Z,17.30
2023-01-23T18:45:33.162Z,16.50
2023-01-23T18:50:33.464Z,15.60
2023-01-23T18:55:34.405Z,16.00
2023-01-23T19:00:35.155Z,16.70
2023-01-23T19:05:35.882Z,15.70
2023-01-23T19:10:47.669Z,15.90
2023-01-23T19:15:38.325Z,16.00
2023-01-23T19:20:38.185Z,16.20
2023-01-23T19:25:39.020Z,15.70
2023-01-23T19:30:40.098Z,16.00
2023-01-23T19:35:40.384Z,15.80
2023-01-23T19:40:41.130Z,15.30
2023-01-23T19:45:41.887Z,15.30
2023-01-23T19:50:42.626Z,15.60
2023-01-23T19:55:43.423Z,16.20
2023-01-23T20:00:51.349Z,16.50
2023-01-23T20:05:44.846Z,16.40
2023-01-23T20:10:45.681Z,16.10
2023-01-23T20:15:46.551Z,16.70
2023-01-23T20:20:47.477Z,16.10
2023-01-23T20:25:48.149Z,16.50
2023-01-23T20:30:49.104Z,16.00
2023-01-23T20:35:49.911Z,16.20
2023-01-23T20:40:50.817Z,16.30
2023-01-23T20:45:51.613Z,17.20
2023-01-23T20:50:52.453Z,16.70
2023-01-23T20:55:53.197Z,16.80
2023-01-23T21:00:53.936Z,17.80
2023-01-23T21:05:54.681Z,19.80
2023-01-23T21:10:55.520Z,18.10
2023-01-23T21:15:56.553Z,17.90
2023-01-23T21:20:59.033Z,17.00
2023-01-23T21:25:57.348Z,18.10
2023-01-23T21:30:58.270Z,17.60
2023-01-23T21:35:58.866Z,17.70
2023-01-23T21:40:59.536Z,16.90
2023-01-23T21:45:59.930Z,17.10
2023-01-23T21:51:00.836Z,17.70
2023-01-23T21:56:02.576Z,16.30
2023-01-23T22:01:02.358Z,17.10
2023-01-23T22:06:03.072Z,17.90
2023-01-23T22:11:03.819Z,17.80
2023-01-23T22:16:05.654Z,17.20
2023-01-23T22:21:06.457Z,17.50
2023-01-23T22:26:07.888Z,17.70
2023-01-23T22:31:07.012Z,18.40
2023-01-23T22:36:07.486Z,21.50
2023-01-23T22:41:08.592Z,21.50
2023-01-23T22:46:08.899Z,19.60
2023-01-23T22:51:10.560Z,20.20
2023-01-23T22:56:10.233Z,20.50
2023-01-23T23:01:11.125Z,20.10
2023-01-23T23:06:11.974Z,21.00
2023-01-23T23:11:12.655Z,20.00
2023-01-23T23:16:13.551Z,20.40
2023-01-23T23:21:14.357Z,21.80
2023-01-23T23:26:15.174Z,21.60
2023-01-23T23:31:16.080Z,22.70
2023-01-23T23:36:16.936Z,21.30
2023-01-23T23:41:17.677Z,21.70
2023-01-23T23:46:18.424Z,21.90
2023-01-23T23:51:19.159Z,21.90
2023-01-23T23:56:19.970Z,21.60
